sensor_id;sensor_type;location;lat;lon;timestamp;temperature;humidity
6355;DHT22;3210;48.708;9.030;2022-12-07T00:01:23;2.80;99.90
6355;DHT22;3210;48.708;9.030;2022-12-07T00:03:52;2.80;99.90
6355;DHT22;3210;48.708;9.030;2022-12-07T00:06:21;2.80;99.90
6355;DHT22;3210;48.708;9.030;2022-12-07T00:08:48;2.70;99.90
6355;DHT22;3210;48.708;9.030;2022-12-07T00:11:17;2.90;99.90
6355;DHT22;3210;48.708;9.030;2022-12-07T00:13:44;2.80;99.90
6355;DHT22;3210;48.708;9.030;2022-12-07T00:16:13;2.90;28.30
6355;DHT22;3210;48.708;9.030;2022-12-07T00:18:41;2.90;1.00
6355;DHT22;3210;48.708;9.030;2022-12-07T00:21:10;2.80;1.40
6355;DHT22;3210;48.708;9.030;2022-12-07T00:23:39;2.80;1.00
6355;DHT22;3210;48.708;9.030;2022-12-07T00:26:08;2.90;1.00
6355;DHT22;3210;48.708;9.030;2022-12-07T00:28:35;2.80;1.00
6355;DHT22;3210;48.708;9.030;2022-12-07T00:31:04;2.70;13.30
6355;DHT22;3210;48.708;9.030;2022-12-07T00:33:31;2.80;80.60
6355;DHT22;3210;48.708;9.030;2022-12-07T00:35:59;2.70;57.60
6355;DHT22;3210;48.708;9.030;2022-12-07T00:38:28;2.50;95.00
6355;DHT22;3210;48.708;9.030;2022-12-07T00:41:01;2.50;99.90
6355;DHT22;3210;48.708;9.030;2022-12-07T00:43:29;2.60;99.90
6355;DHT22;3210;48.708;9.030;2022-12-07T00:45:56;2.60;99.90
6355;DHT22;3210;48.708;9.030;2022-12-07T00:48:23;2.60;99.90
6355;DHT22;3210;48.708;9.030;2022-12-07T00:50:50;2.60;99.90
6355;DHT22;3210;48.708;9.030;2022-12-07T00:53:18;2.50;99.90
6355;DHT22;3210;48.708;9.030;2022-12-07T00:55:45;2.70;99.90
6355;DHT22;3210;48.708;9.030;2022-12-07T00:58:14;2.70;99.90
6355;DHT22;3210;48.708;9.030;2022-12-07T01:00:42;2.70;79.70
6355;DHT22;3210;48.708;9.030;2022-12-07T01:03:11;2.70;17.50
6355;DHT22;3210;48.708;9.030;2022-12-07T01:05:39;2.60;30.20
6355;DHT22;3210;48.708;9.030;2022-12-07T01:08:06;2.60;53.00
6355;DHT22;3210;48.708;9.030;2022-12-07T01:10:33;2.70;58.60
6355;DHT22;3210;48.708;9.030;2022-12-07T01:12:59;2.60;50.00
6355;DHT22;3210;48.708;9.030;2022-12-07T01:15:28;2.50;99.90
6355;DHT22;3210;48.708;9.030;2022-12-07T01:17:54;2.50;99.90
6355;DHT22;3210;48.708;9.030;2022-12-07T01:20:21;2.70;92.00
6355;DHT22;3210;48.708;9.030;2022-12-07T01:22:48;2.70;1.00
6355;DHT22;3210;48.708;9.030;2022-12-07T01:25:15;2.60;1.00
6355;DHT22;3210;48.708;9.030;2022-12-07T01:27:42;2.50;1.00
6355;DHT22;3210;48.708;9.030;2022-12-07T01:30:10;2.40;12.50
6355;DHT22;3210;48.708;9.030;2022-12-07T01:32:39;2.50;1.00
6355;DHT22;3210;48.708;9.030;2022-12-07T01:35:06;2.60;1.00
6355;DHT22;3210;48.708;9.030;2022-12-07T01:37:36;2.60;1.00
6355;DHT22;3210;48.708;9.030;2022-12-07T01:40:06;2.70;1.00
6355;DHT22;3210;48.708;9.030;2022-12-07T01:42:33;2.70;1.00
6355;DHT22;3210;48.708;9.030;2022-12-07T01:48:12;2.50;1.00
6355;DHT22;3210;48.708;9.030;2022-12-07T01:50:40;2.50;1.00
6355;DHT22;3210;48.708;9.030;2022-12-07T01:53:09;2.40;1.00
6355;DHT22;3210;48.708;9.030;2022-12-07T01:55:40;2.40;1.00
6355;DHT22;3210;48.708;9.030;2022-12-07T01:58:09;2.50;1.00
6355;DHT22;3210;48.708;9.030;2022-12-07T02:00:37;2.60;1.00
6355;DHT22;3210;48.708;9.030;2022-12-07T02:03:07;2.50;1.00
6355;DHT22;3210;48.708;9.030;2022-12-07T02:05:38;2.50;1.00
6355;DHT22;3210;48.708;9.030;2022-12-07T02:08:07;2.40;1.00
6355;DHT22;3210;48.708;9.030;2022-12-07T02:10:34;2.40;1.00
6355;DHT22;3210;48.708;9.030;2022-12-07T02:13:03;2.40;1.00
6355;DHT22;3210;48.708;9.030;2022-12-07T02:15:39;2.30;1.00
6355;DHT22;3210;48.708;9.030;2022-12-07T02:18:13;2.30;1.00
6355;DHT22;3210;48.708;9.030;2022-12-07T02:20:50;2.30;1.00
6355;DHT22;3210;48.708;9.030;2022-12-07T02:23:53;2.40;1.00
6355;DHT22;3210;48.708;9.030;2022-12-07T02:26:50;2.30;1.00
6355;DHT22;3210;48.708;9.030;2022-12-07T02:29:24;2.30;1.00
6355;DHT22;3210;48.708;9.030;2022-12-07T02:31:56;2.60;1.00
6355;DHT22;3210;48.708;9.030;2022-12-07T02:34:32;2.50;1.00
6355;DHT22;3210;48.708;9.030;2022-12-07T02:37:03;2.50;1.00
6355;DHT22;3210;48.708;9.030;2022-12-07T02:39:40;2.60;1.00
6355;DHT22;3210;48.708;9.030;2022-12-07T02:42:13;2.50;1.00
6355;DHT22;3210;48.708;9.030;2022-12-07T02:44:42;2.40;1.00
6355;DHT22;3210;48.708;9.030;2022-12-07T02:47:13;2.40;1.00
6355;DHT22;3210;48.708;9.030;2022-12-07T02:49:41;2.40;1.00
6355;DHT22;3210;48.708;9.030;2022-12-07T02:52:08;2.30;1.00
6355;DHT22;3210;48.708;9.030;2022-12-07T02:54:35;2.30;1.00
6355;DHT22;3210;48.708;9.030;2022-12-07T02:57:11;2.20;1.00
6355;DHT22;3210;48.708;9.030;2022-12-07T02:59:49;2.20;1.00
6355;DHT22;3210;48.708;9.030;2022-12-07T03:02:25;2.20;7.60
6355;DHT22;3210;48.708;9.030;2022-12-07T03:05:06;2.40;1.00
6355;DHT22;3210;48.708;9.030;2022-12-07T03:07:42;2.50;1.00
6355;DHT22;3210;48.708;9.030;2022-12-07T03:10:17;2.40;1.00
6355;DHT22;3210;48.708;9.030;2022-12-07T03:12:53;2.40;1.00
6355;DHT22;3210;48.708;9.030;2022-12-07T03:15:29;2.40;1.00
6355;DHT22;3210;48.708;9.030;2022-12-07T03:17:59;2.40;1.00
6355;DHT22;3210;48.708;9.030;2022-12-07T03:20:29;2.40;1.00
6355;DHT22;3210;48.708;9.030;2022-12-07T03:22:57;2.30;1.00
6355;DHT22;3210;48.708;9.030;2022-12-07T03:25:26;2.40;1.00
6355;DHT22;3210;48.708;9.030;2022-12-07T03:27:57;2.60;1.00
6355;DHT22;3210;48.708;9.030;2022-12-07T03:30:29;2.50;1.00
6355;DHT22;3210;48.708;9.030;2022-12-07T03:33:00;2.30;1.00
6355;DHT22;3210;48.708;9.030;2022-12-07T03:35:31;2.30;1.00
6355;DHT22;3210;48.708;9.030;2022-12-07T03:38:08;2.20;1.00
6355;DHT22;3210;48.708;9.030;2022-12-07T03:40:43;2.30;20.60
6355;DHT22;3210;48.708;9.030;2022-12-07T03:43:11;2.20;1.00
6355;DHT22;3210;48.708;9.030;2022-12-07T03:45:41;2.20;1.00
6355;DHT22;3210;48.708;9.030;2022-12-07T03:48:14;2.20;1.00
6355;DHT22;3210;48.708;9.030;2022-12-07T03:50:47;2.30;1.00
6355;DHT22;3210;48.708;9.030;2022-12-07T03:53:19;2.30;1.00
6355;DHT22;3210;48.708;9.030;2022-12-07T03:55:48;2.20;1.00
6355;DHT22;3210;48.708;9.030;2022-12-07T03:58:19;2.20;1.00
6355;DHT22;3210;48.708;9.030;2022-12-07T04:00:49;2.10;1.00
6355;DHT22;3210;48.708;9.030;2022-12-07T04:03:16;2.00;10.20
6355;DHT22;3210;48.708;9.030;2022-12-07T04:05:44;2.10;51.20
6355;DHT22;3210;48.708;9.030;2022-12-07T04:08:11;2.20;94.10
6355;DHT22;3210;48.708;9.030;2022-12-07T04:10:37;2.10;99.10
6355;DHT22;3210;48.708;9.030;2022-12-07T04:13:04;2.10;89.10
6355;DHT22;3210;48.708;9.030;2022-12-07T04:15:31;2.00;93.50
6355;DHT22;3210;48.708;9.030;2022-12-07T04:17:59;2.00;99.90
6355;DHT22;3210;48.708;9.030;2022-12-07T04:20:26;2.00;99.90
6355;DHT22;3210;48.708;9.030;2022-12-07T04:22:53;1.90;99.90
6355;DHT22;3210;48.708;9.030;2022-12-07T04:25:20;1.90;99.90
6355;DHT22;3210;48.708;9.030;2022-12-07T04:27:47;1.90;99.90
6355;DHT22;3210;48.708;9.030;2022-12-07T04:30:13;1.80;99.90
6355;DHT22;3210;48.708;9.030;2022-12-07T04:32:40;1.70;99.90
6355;DHT22;3210;48.708;9.030;2022-12-07T04:35:09;1.90;99.90
6355;DHT22;3210;48.708;9.030;2022-12-07T04:37:36;1.80;99.90
6355;DHT22;3210;48.708;9.030;2022-12-07T04:40:06;1.70;99.90
6355;DHT22;3210;48.708;9.030;2022-12-07T04:42:33;1.80;99.90
6355;DHT22;3210;48.708;9.030;2022-12-07T04:45:00;1.80;99.90
6355;DHT22;3210;48.708;9.030;2022-12-07T04:47:26;1.90;99.90
6355;DHT22;3210;48.708;9.030;2022-12-07T04:49:53;2.00;99.90
6355;DHT22;3210;48.708;9.030;2022-12-07T04:52:21;2.00;99.90
6355;DHT22;3210;48.708;9.030;2022-12-07T04:54:48;1.90;99.90
6355;DHT22;3210;48.708;9.030;2022-12-07T04:57:15;1.80;99.90
6355;DHT22;3210;48.708;9.030;2022-12-07T04:59:42;1.80;99.90
6355;DHT22;3210;48.708;9.030;2022-12-07T05:02:09;1.70;99.90
6355;DHT22;3210;48.708;9.030;2022-12-07T05:04:35;1.80;99.90
6355;DHT22;3210;48.708;9.030;2022-12-07T05:07:02;1.80;99.90
6355;DHT22;3210;48.708;9.030;2022-12-07T05:09:30;1.80;58.80
6355;DHT22;3210;48.708;9.030;2022-12-07T05:11:57;1.60;24.40
6355;DHT22;3210;48.708;9.030;2022-12-07T05:14:24;1.50;53.80
6355;DHT22;3210;48.708;9.030;2022-12-07T05:16:51;1.70;79.20
6355;DHT22;3210;48.708;9.030;2022-12-07T05:19:19;1.60;97.10
6355;DHT22;3210;48.708;9.030;2022-12-07T05:21:46;1.60;87.10
6355;DHT22;3210;48.708;9.030;2022-12-07T05:24:14;1.50;95.60
6355;DHT22;3210;48.708;9.030;2022-12-07T05:26:43;1.60;99.90
6355;DHT22;3210;48.708;9.030;2022-12-07T05:29:12;1.70;62.10
6355;DHT22;3210;48.708;9.030;2022-12-07T05:31:39;1.60;11.40
6355;DHT22;3210;48.708;9.030;2022-12-07T05:34:06;1.60;12.70
6355;DHT22;3210;48.708;9.030;2022-12-07T05:36:33;1.50;1.00
6355;DHT22;3210;48.708;9.030;2022-12-07T05:39:00;1.60;1.00
6355;DHT22;3210;48.708;9.030;2022-12-07T05:41:26;1.40;1.00
6355;DHT22;3210;48.708;9.030;2022-12-07T05:44:12;1.40;1.00
6355;DHT22;3210;48.708;9.030;2022-12-07T05:46:39;1.30;1.00
6355;DHT22;3210;48.708;9.030;2022-12-07T05:49:06;1.20;1.00
6355;DHT22;3210;48.708;9.030;2022-12-07T05:51:33;1.10;1.00
6355;DHT22;3210;48.708;9.030;2022-12-07T05:53:59;1.00;1.00
6355;DHT22;3210;48.708;9.030;2022-12-07T05:56:26;1.10;1.00
6355;DHT22;3210;48.708;9.030;2022-12-07T05:58:53;1.00;1.00
6355;DHT22;3210;48.708;9.030;2022-12-07T06:01:39;1.00;1.00
6355;DHT22;3210;48.708;9.030;2022-12-07T06:04:06;0.90;1.00
6355;DHT22;3210;48.708;9.030;2022-12-07T06:06:33;0.90;1.00
6355;DHT22;3210;48.708;9.030;2022-12-07T06:09:00;0.90;1.00
6355;DHT22;3210;48.708;9.030;2022-12-07T06:11:27;1.10;1.00
6355;DHT22;3210;48.708;9.030;2022-12-07T06:14:11;1.00;1.00
6355;DHT22;3210;48.708;9.030;2022-12-07T06:16:39;1.00;1.00
6355;DHT22;3210;48.708;9.030;2022-12-07T06:19:06;0.90;1.00
6355;DHT22;3210;48.708;9.030;2022-12-07T06:21:33;1.00;17.80
6355;DHT22;3210;48.708;9.030;2022-12-07T06:24:00;1.00;1.00
6355;DHT22;3210;48.708;9.030;2022-12-07T06:26:27;0.90;40.10
6355;DHT22;3210;48.708;9.030;2022-12-07T06:28:54;0.90;99.90
6355;DHT22;3210;48.708;9.030;2022-12-07T06:31:20;0.90;99.90
6355;DHT22;3210;48.708;9.030;2022-12-07T06:33:49;1.00;99.90
6355;DHT22;3210;48.708;9.030;2022-12-07T06:36:15;1.20;99.90
6355;DHT22;3210;48.708;9.030;2022-12-07T06:38:42;1.30;84.50
6355;DHT22;3210;48.708;9.030;2022-12-07T06:41:09;1.30;2.90
6355;DHT22;3210;48.708;9.030;2022-12-07T06:43:36;1.20;1.00
6355;DHT22;3210;48.708;9.030;2022-12-07T06:46:04;1.20;1.00
6355;DHT22;3210;48.708;9.030;2022-12-07T06:48:30;1.20;1.00
6355;DHT22;3210;48.708;9.030;2022-12-07T06:50:58;1.30;1.00
6355;DHT22;3210;48.708;9.030;2022-12-07T06:53:25;1.50;1.00
6355;DHT22;3210;48.708;9.030;2022-12-07T06:55:52;1.60;1.00
6355;DHT22;3210;48.708;9.030;2022-12-07T06:58:19;1.50;1.00
6355;DHT22;3210;48.708;9.030;2022-12-07T07:00:48;1.40;1.00
6355;DHT22;3210;48.708;9.030;2022-12-07T07:03:15;1.40;1.00
6355;DHT22;3210;48.708;9.030;2022-12-07T07:05:41;1.30;1.00
6355;DHT22;3210;48.708;9.030;2022-12-07T07:08:10;1.30;1.00
6355;DHT22;3210;48.708;9.030;2022-12-07T07:10:37;1.40;1.00
6355;DHT22;3210;48.708;9.030;2022-12-07T07:13:04;1.40;1.00
6355;DHT22;3210;48.708;9.030;2022-12-07T07:15:31;1.50;1.00
6355;DHT22;3210;48.708;9.030;2022-12-07T07:17:58;1.50;1.00
6355;DHT22;3210;48.708;9.030;2022-12-07T07:20:25;1.50;1.00
6355;DHT22;3210;48.708;9.030;2022-12-07T07:22:54;1.70;1.00
6355;DHT22;3210;48.708;9.030;2022-12-07T07:25:22;1.60;1.00
6355;DHT22;3210;48.708;9.030;2022-12-07T07:27:49;1.60;1.00
6355;DHT22;3210;48.708;9.030;2022-12-07T07:30:16;1.60;1.00
6355;DHT22;3210;48.708;9.030;2022-12-07T07:32:43;1.60;1.00
6355;DHT22;3210;48.708;9.030;2022-12-07T07:35:10;1.60;1.00
6355;DHT22;3210;48.708;9.030;2022-12-07T07:37:36;1.60;1.00
6355;DHT22;3210;48.708;9.030;2022-12-07T07:40:04;1.50;1.00
6355;DHT22;3210;48.708;9.030;2022-12-07T07:42:32;1.50;1.00
6355;DHT22;3210;48.708;9.030;2022-12-07T07:44:59;1.60;1.00
6355;DHT22;3210;48.708;9.030;2022-12-07T07:47:26;1.50;1.00
6355;DHT22;3210;48.708;9.030;2022-12-07T07:49:54;1.40;1.00
6355;DHT22;3210;48.708;9.030;2022-12-07T07:52:21;1.50;1.00
6355;DHT22;3210;48.708;9.030;2022-12-07T07:54:48;1.50;1.00
6355;DHT22;3210;48.708;9.030;2022-12-07T07:57:16;1.60;1.00
6355;DHT22;3210;48.708;9.030;2022-12-07T07:59:44;1.60;1.00
6355;DHT22;3210;48.708;9.030;2022-12-07T08:02:14;1.70;1.00
6355;DHT22;3210;48.708;9.030;2022-12-07T08:04:42;1.70;1.00
6355;DHT22;3210;48.708;9.030;2022-12-07T08:07:09;1.70;1.00
6355;DHT22;3210;48.708;9.030;2022-12-07T08:09:35;1.80;1.00
6355;DHT22;3210;48.708;9.030;2022-12-07T08:12:03;1.80;1.00
6355;DHT22;3210;48.708;9.030;2022-12-07T08:14:30;1.80;1.00
6355;DHT22;3210;48.708;9.030;2022-12-07T08:16:58;1.80;1.00
6355;DHT22;3210;48.708;9.030;2022-12-07T08:19:25;1.90;1.00
6355;DHT22;3210;48.708;9.030;2022-12-07T08:21:52;1.90;1.00
6355;DHT22;3210;48.708;9.030;2022-12-07T08:24:20;2.10;99.90
6355;DHT22;3210;48.708;9.030;2022-12-07T08:26:47;2.10;99.90
6355;DHT22;3210;48.708;9.030;2022-12-07T08:29:15;2.10;99.90
6355;DHT22;3210;48.708;9.030;2022-12-07T08:31:42;2.10;99.90
6355;DHT22;3210;48.708;9.030;2022-12-07T08:34:11;2.20;99.90
6355;DHT22;3210;48.708;9.030;2022-12-07T08:36:38;2.20;99.90
6355;DHT22;3210;48.708;9.030;2022-12-07T08:39:05;2.30;99.90
6355;DHT22;3210;48.708;9.030;2022-12-07T08:41:32;2.30;99.90
6355;DHT22;3210;48.708;9.030;2022-12-07T08:43:59;2.40;99.90
6355;DHT22;3210;48.708;9.030;2022-12-07T08:46:30;2.40;99.90
6355;DHT22;3210;48.708;9.030;2022-12-07T08:49:02;2.40;99.90
6355;DHT22;3210;48.708;9.030;2022-12-07T08:51:31;2.50;99.90
6355;DHT22;3210;48.708;9.030;2022-12-07T08:53:59;2.60;99.90
6355;DHT22;3210;48.708;9.030;2022-12-07T08:56:27;2.60;99.90
6355;DHT22;3210;48.708;9.030;2022-12-07T08:58:54;2.70;99.90
6355;DHT22;3210;48.708;9.030;2022-12-07T09:01:21;2.70;99.90
6355;DHT22;3210;48.708;9.030;2022-12-07T09:03:48;2.80;99.90
6355;DHT22;3210;48.708;9.030;2022-12-07T09:06:15;2.80;99.90
6355;DHT22;3210;48.708;9.030;2022-12-07T09:08:46;2.80;99.90
6355;DHT22;3210;48.708;9.030;2022-12-07T09:11:13;2.80;99.90
6355;DHT22;3210;48.708;9.030;2022-12-07T09:13:40;2.80;99.90
6355;DHT22;3210;48.708;9.030;2022-12-07T09:16:07;2.80;99.90
6355;DHT22;3210;48.708;9.030;2022-12-07T09:18:34;2.90;99.90
6355;DHT22;3210;48.708;9.030;2022-12-07T09:21:00;3.00;99.90
6355;DHT22;3210;48.708;9.030;2022-12-07T09:23:27;3.00;99.90
6355;DHT22;3210;48.708;9.030;2022-12-07T09:25:59;3.00;99.90
6355;DHT22;3210;48.708;9.030;2022-12-07T09:28:25;3.10;99.90
6355;DHT22;3210;48.708;9.030;2022-12-07T09:30:52;3.10;99.90
6355;DHT22;3210;48.708;9.030;2022-12-07T09:33:19;3.30;99.90
6355;DHT22;3210;48.708;9.030;2022-12-07T09:35:47;3.30;99.90
6355;DHT22;3210;48.708;9.030;2022-12-07T09:38:14;3.30;99.90
6355;DHT22;3210;48.708;9.030;2022-12-07T09:40:41;3.40;99.90
6355;DHT22;3210;48.708;9.030;2022-12-07T09:43:14;3.50;99.90
6355;DHT22;3210;48.708;9.030;2022-12-07T09:45:42;3.50;99.90
6355;DHT22;3210;48.708;9.030;2022-12-07T09:48:16;3.60;99.90
6355;DHT22;3210;48.708;9.030;2022-12-07T09:50:44;3.60;99.90
6355;DHT22;3210;48.708;9.030;2022-12-07T09:53:20;3.60;99.90
6355;DHT22;3210;48.708;9.030;2022-12-07T09:55:49;3.60;99.90
6355;DHT22;3210;48.708;9.030;2022-12-07T09:58:21;3.60;99.90
6355;DHT22;3210;48.708;9.030;2022-12-07T10:00:49;3.60;99.90
6355;DHT22;3210;48.708;9.030;2022-12-07T10:03:17;3.70;99.90
6355;DHT22;3210;48.708;9.030;2022-12-07T10:05:46;3.80;99.90
6355;DHT22;3210;48.708;9.030;2022-12-07T10:08:14;3.80;99.90
6355;DHT22;3210;48.708;9.030;2022-12-07T10:10:43;3.80;99.90
6355;DHT22;3210;48.708;9.030;2022-12-07T10:13:12;3.90;99.90
6355;DHT22;3210;48.708;9.030;2022-12-07T10:15:51;3.90;99.90
6355;DHT22;3210;48.708;9.030;2022-12-07T10:18:27;4.00;99.90
6355;DHT22;3210;48.708;9.030;2022-12-07T10:21:10;4.10;99.90
6355;DHT22;3210;48.708;9.030;2022-12-07T10:23:39;4.20;99.90
6355;DHT22;3210;48.708;9.030;2022-12-07T10:26:28;4.10;99.90
6355;DHT22;3210;48.708;9.030;2022-12-07T10:28:56;4.20;99.90
6355;DHT22;3210;48.708;9.030;2022-12-07T10:31:26;4.20;99.90
6355;DHT22;3210;48.708;9.030;2022-12-07T10:33:54;4.10;99.90
6355;DHT22;3210;48.708;9.030;2022-12-07T10:36:24;4.20;99.90
6355;DHT22;3210;48.708;9.030;2022-12-07T10:38:53;4.10;99.90
6355;DHT22;3210;48.708;9.030;2022-12-07T10:41:25;4.10;99.90
6355;DHT22;3210;48.708;9.030;2022-12-07T10:43:54;4.20;99.90
6355;DHT22;3210;48.708;9.030;2022-12-07T10:47:00;4.10;99.90
6355;DHT22;3210;48.708;9.030;2022-12-07T10:50:01;4.10;99.90
6355;DHT22;3210;48.708;9.030;2022-12-07T10:52:46;4.20;99.90
6355;DHT22;3210;48.708;9.030;2022-12-07T10:55:23;4.20;99.90
6355;DHT22;3210;48.708;9.030;2022-12-07T10:58:20;4.20;99.90
6355;DHT22;3210;48.708;9.030;2022-12-07T11:00:57;4.30;99.90
6355;DHT22;3210;48.708;9.030;2022-12-07T11:03:41;4.30;99.90
6355;DHT22;3210;48.708;9.030;2022-12-07T11:06:17;4.30;99.90
6355;DHT22;3210;48.708;9.030;2022-12-07T11:08:57;4.40;99.90
6355;DHT22;3210;48.708;9.030;2022-12-07T11:11:33;4.50;99.90
6355;DHT22;3210;48.708;9.030;2022-12-07T11:14:05;4.40;99.90
6355;DHT22;3210;48.708;9.030;2022-12-07T11:16:49;4.40;99.90
6355;DHT22;3210;48.708;9.030;2022-12-07T11:19:40;4.50;99.90
6355;DHT22;3210;48.708;9.030;2022-12-07T11:22:16;4.60;99.90
6355;DHT22;3210;48.708;9.030;2022-12-07T11:24:52;4.60;99.90
6355;DHT22;3210;48.708;9.030;2022-12-07T11:27:27;4.60;99.90
6355;DHT22;3210;48.708;9.030;2022-12-07T11:30:07;4.60;99.90
6355;DHT22;3210;48.708;9.030;2022-12-07T11:32:49;4.60;99.90
6355;DHT22;3210;48.708;9.030;2022-12-07T11:35:26;4.60;99.90
6355;DHT22;3210;48.708;9.030;2022-12-07T11:37:58;4.60;99.90
6355;DHT22;3210;48.708;9.030;2022-12-07T11:40:28;4.50;99.90
6355;DHT22;3210;48.708;9.030;2022-12-07T11:42:59;4.50;99.90
6355;DHT22;3210;48.708;9.030;2022-12-07T11:45:31;4.50;99.90
6355;DHT22;3210;48.708;9.030;2022-12-07T11:48:01;4.50;99.90
6355;DHT22;3210;48.708;9.030;2022-12-07T11:50:33;4.50;99.90
6355;DHT22;3210;48.708;9.030;2022-12-07T11:53:03;4.40;99.90
6355;DHT22;3210;48.708;9.030;2022-12-07T11:55:40;4.50;99.90
6355;DHT22;3210;48.708;9.030;2022-12-07T11:58:18;4.40;99.90
6355;DHT22;3210;48.708;9.030;2022-12-07T12:00:48;4.50;99.90
6355;DHT22;3210;48.708;9.030;2022-12-07T12:03:20;4.40;99.90
6355;DHT22;3210;48.708;9.030;2022-12-07T12:05:50;4.50;99.90
6355;DHT22;3210;48.708;9.030;2022-12-07T12:08:21;4.50;99.90
6355;DHT22;3210;48.708;9.030;2022-12-07T12:10:56;4.40;99.90
6355;DHT22;3210;48.708;9.030;2022-12-07T12:13:42;4.30;99.90
6355;DHT22;3210;48.708;9.030;2022-12-07T12:16:26;4.30;99.90
6355;DHT22;3210;48.708;9.030;2022-12-07T12:21:49;4.40;99.90
6355;DHT22;3210;48.708;9.030;2022-12-07T12:24:23;4.50;99.90
6355;DHT22;3210;48.708;9.030;2022-12-07T12:26:53;4.40;99.90
6355;DHT22;3210;48.708;9.030;2022-12-07T12:29:27;4.40;99.90
6355;DHT22;3210;48.708;9.030;2022-12-07T12:32:17;4.30;99.90
6355;DHT22;3210;48.708;9.030;2022-12-07T12:35:03;4.20;99.90
6355;DHT22;3210;48.708;9.030;2022-12-07T12:37:47;4.20;99.90
6355;DHT22;3210;48.708;9.030;2022-12-07T12:43:39;4.20;99.90
6355;DHT22;3210;48.708;9.030;2022-12-07T12:49:34;4.20;99.90
6355;DHT22;3210;48.708;9.030;2022-12-07T12:55:19;4.10;99.90
6355;DHT22;3210;48.708;9.030;2022-12-07T12:58:22;4.00;99.90
6355;DHT22;3210;48.708;9.030;2022-12-07T13:03:56;4.10;99.90
6355;DHT22;3210;48.708;9.030;2022-12-07T13:06:34;3.90;99.90
6355;DHT22;3210;48.708;9.030;2022-12-07T13:09:03;4.00;99.90
6355;DHT22;3210;48.708;9.030;2022-12-07T13:11:34;4.00;99.90
6355;DHT22;3210;48.708;9.030;2022-12-07T13:14:39;4.00;99.90
6355;DHT22;3210;48.708;9.030;2022-12-07T13:17:08;4.00;99.90
6355;DHT22;3210;48.708;9.030;2022-12-07T13:19:57;4.00;99.90
6355;DHT22;3210;48.708;9.030;2022-12-07T13:25:30;4.10;99.90
6355;DHT22;3210;48.708;9.030;2022-12-07T13:28:02;4.10;99.90
6355;DHT22;3210;48.708;9.030;2022-12-07T13:30:45;4.10;99.90
6355;DHT22;3210;48.708;9.030;2022-12-07T13:33:12;4.00;99.90
6355;DHT22;3210;48.708;9.030;2022-12-07T13:35:40;3.90;99.90
6355;DHT22;3210;48.708;9.030;2022-12-07T13:38:22;4.00;99.90
6355;DHT22;3210;48.708;9.030;2022-12-07T13:41:00;4.00;99.90
6355;DHT22;3210;48.708;9.030;2022-12-07T13:43:29;3.90;99.90
6355;DHT22;3210;48.708;9.030;2022-12-07T13:45:56;3.90;99.90
6355;DHT22;3210;48.708;9.030;2022-12-07T13:48:30;4.00;99.90
6355;DHT22;3210;48.708;9.030;2022-12-07T13:50:59;4.00;99.90
6355;DHT22;3210;48.708;9.030;2022-12-07T13:53:27;4.00;99.90
6355;DHT22;3210;48.708;9.030;2022-12-07T13:55:56;3.80;99.90
6355;DHT22;3210;48.708;9.030;2022-12-07T13:58:23;3.80;99.90
6355;DHT22;3210;48.708;9.030;2022-12-07T14:00:52;3.80;99.90
6355;DHT22;3210;48.708;9.030;2022-12-07T14:03:31;3.80;99.90
6355;DHT22;3210;48.708;9.030;2022-12-07T14:06:15;3.50;99.90
6355;DHT22;3210;48.708;9.030;2022-12-07T14:08:43;3.60;99.90
6355;DHT22;3210;48.708;9.030;2022-12-07T14:11:14;3.70;99.90
6355;DHT22;3210;48.708;9.030;2022-12-07T14:13:45;3.70;99.90
6355;DHT22;3210;48.708;9.030;2022-12-07T14:16:25;3.60;99.90
6355;DHT22;3210;48.708;9.030;2022-12-07T14:18:53;3.60;99.90
6355;DHT22;3210;48.708;9.030;2022-12-07T14:21:22;3.60;99.90
6355;DHT22;3210;48.708;9.030;2022-12-07T14:24:08;3.60;99.90
6355;DHT22;3210;48.708;9.030;2022-12-07T14:26:35;3.50;99.90
6355;DHT22;3210;48.708;9.030;2022-12-07T14:29:30;3.60;99.90
6355;DHT22;3210;48.708;9.030;2022-12-07T14:32:19;3.50;99.90
6355;DHT22;3210;48.708;9.030;2022-12-07T14:34:59;3.50;99.90
6355;DHT22;3210;48.708;9.030;2022-12-07T14:37:27;3.50;99.90
6355;DHT22;3210;48.708;9.030;2022-12-07T14:39:54;3.50;99.90
6355;DHT22;3210;48.708;9.030;2022-12-07T14:42:23;3.50;99.90
6355;DHT22;3210;48.708;9.030;2022-12-07T14:44:50;3.50;99.90
6355;DHT22;3210;48.708;9.030;2022-12-07T14:47:19;3.50;99.90
6355;DHT22;3210;48.708;9.030;2022-12-07T14:49:45;3.50;99.90
6355;DHT22;3210;48.708;9.030;2022-12-07T14:52:15;3.50;99.90
6355;DHT22;3210;48.708;9.030;2022-12-07T14:54:42;3.50;99.90
6355;DHT22;3210;48.708;9.030;2022-12-07T14:57:10;3.40;99.90
6355;DHT22;3210;48.708;9.030;2022-12-07T14:59:37;3.50;99.90
6355;DHT22;3210;48.708;9.030;2022-12-07T15:02:04;3.40;99.90
6355;DHT22;3210;48.708;9.030;2022-12-07T15:04:33;3.40;99.90
6355;DHT22;3210;48.708;9.030;2022-12-07T15:07:02;3.40;99.90
6355;DHT22;3210;48.708;9.030;2022-12-07T15:09:29;3.50;99.90
6355;DHT22;3210;48.708;9.030;2022-12-07T15:11:56;3.50;99.90
6355;DHT22;3210;48.708;9.030;2022-12-07T15:14:23;3.40;99.90
6355;DHT22;3210;48.708;9.030;2022-12-07T15:16:49;3.40;99.90
6355;DHT22;3210;48.708;9.030;2022-12-07T15:19:18;3.40;99.90
6355;DHT22;3210;48.708;9.030;2022-12-07T15:21:46;3.40;99.90
6355;DHT22;3210;48.708;9.030;2022-12-07T15:24:13;3.50;99.90
6355;DHT22;3210;48.708;9.030;2022-12-07T15:26:40;3.50;99.90
6355;DHT22;3210;48.708;9.030;2022-12-07T15:29:08;3.50;99.90
6355;DHT22;3210;48.708;9.030;2022-12-07T15:31:35;3.50;99.90
6355;DHT22;3210;48.708;9.030;2022-12-07T15:34:02;3.40;99.90
6355;DHT22;3210;48.708;9.030;2022-12-07T15:36:31;3.40;99.90
6355;DHT22;3210;48.708;9.030;2022-12-07T15:39:00;3.40;99.90
6355;DHT22;3210;48.708;9.030;2022-12-07T15:41:27;3.10;99.90
6355;DHT22;3210;48.708;9.030;2022-12-07T15:43:53;3.10;99.90
6355;DHT22;3210;48.708;9.030;2022-12-07T15:46:39;3.10;99.90
6355;DHT22;3210;48.708;9.030;2022-12-07T15:49:10;3.00;99.90
6355;DHT22;3210;48.708;9.030;2022-12-07T15:51:37;3.00;99.90
6355;DHT22;3210;48.708;9.030;2022-12-07T15:54:06;3.10;99.90
6355;DHT22;3210;48.708;9.030;2022-12-07T15:56:33;3.00;99.90
6355;DHT22;3210;48.708;9.030;2022-12-07T15:58:59;2.90;99.90
6355;DHT22;3210;48.708;9.030;2022-12-07T16:01:26;2.90;99.90
6355;DHT22;3210;48.708;9.030;2022-12-07T16:03:53;2.90;99.90
6355;DHT22;3210;48.708;9.030;2022-12-07T16:06:20;3.00;99.90
6355;DHT22;3210;48.708;9.030;2022-12-07T16:08:47;2.90;99.90
6355;DHT22;3210;48.708;9.030;2022-12-07T16:11:15;2.90;99.90
6355;DHT22;3210;48.708;9.030;2022-12-07T16:13:42;2.80;99.90
6355;DHT22;3210;48.708;9.030;2022-12-07T16:16:11;2.80;99.90
6355;DHT22;3210;48.708;9.030;2022-12-07T16:18:39;2.80;99.90
6355;DHT22;3210;48.708;9.030;2022-12-07T16:21:06;2.80;99.90
6355;DHT22;3210;48.708;9.030;2022-12-07T16:23:32;2.70;99.90
6355;DHT22;3210;48.708;9.030;2022-12-07T16:26:07;2.70;99.90
6355;DHT22;3210;48.708;9.030;2022-12-07T16:28:35;2.70;99.90
6355;DHT22;3210;48.708;9.030;2022-12-07T16:31:04;2.60;99.90
6355;DHT22;3210;48.708;9.030;2022-12-07T16:33:33;2.50;99.90
6355;DHT22;3210;48.708;9.030;2022-12-07T16:36:00;2.50;99.90
6355;DHT22;3210;48.708;9.030;2022-12-07T16:38:27;2.60;99.90
6355;DHT22;3210;48.708;9.030;2022-12-07T16:40:54;2.60;99.90
6355;DHT22;3210;48.708;9.030;2022-12-07T16:43:21;2.50;99.90
6355;DHT22;3210;48.708;9.030;2022-12-07T16:45:50;2.50;99.90
6355;DHT22;3210;48.708;9.030;2022-12-07T16:48:17;2.40;99.90
6355;DHT22;3210;48.708;9.030;2022-12-07T16:50:45;2.40;99.90
6355;DHT22;3210;48.708;9.030;2022-12-07T16:53:13;2.40;99.90
6355;DHT22;3210;48.708;9.030;2022-12-07T16:55:42;2.40;99.90
6355;DHT22;3210;48.708;9.030;2022-12-07T16:58:09;2.40;99.90
6355;DHT22;3210;48.708;9.030;2022-12-07T17:00:37;2.30;99.90
6355;DHT22;3210;48.708;9.030;2022-12-07T17:03:05;2.30;99.90
6355;DHT22;3210;48.708;9.030;2022-12-07T17:05:32;2.30;99.90